Time;durP1;ratioP1;P1;durP2;ratioP2;P2;SDS_P1;SDS_P2;PMS_P1;PMS_P2;Temp;Humidity;BMP_temperature;BMP_pressure;BME280_temperature;BME280_humidity;BME280_pressure;Samples;Min_cycle;Max_cycle;Signal;HPM_P1;HPM_P2
2022/06/28 00:01:55;;;;;;;20.07;17.27;;;13.90;99.90;;;;;;5052694;28;20129;-77
2022/06/28 00:04:22;;;;;;;21.27;16.80;;;13.90;99.90;;;;;;5030485;28;20042;-77
2022/06/28 00:06:47;;;;;;;20.33;17.93;;;13.90;99.90;;;;;;5034145;28;20136;-78
2022/06/28 00:09:14;;;;;;;22.73;18.23;;;13.90;99.90;;;;;;5015345;28;20131;-77
2022/06/28 00:11:41;;;;;;;18.33;16.50;;;13.80;99.90;;;;;;5017506;28;20043;-77
2022/06/28 00:16:04;;;;;;;19.70;17.27;;;13.80;99.90;;;;;;5049309;28;20037;-77
2022/06/28 00:16:53;;;;;;;19.50;16.80;;;13.80;99.90;;;;;;5035960;28;20072;-77
2022/06/28 00:19:19;;;;;;;21.63;17.23;;;13.80;99.90;;;;;;5026057;28;20100;-78
2022/06/28 00:21:47;;;;;;;17.17;15.47;;;13.70;99.90;;;;;;5035723;28;20037;-77
2022/06/28 00:24:13;;;;;;;21.57;16.60;;;13.70;99.90;;;;;;5035604;28;20049;-77
2022/06/28 00:26:39;;;;;;;19.57;15.90;;;13.80;99.90;;;;;;5017255;28;20466;-78
2022/06/28 00:29:04;;;;;;;20.47;16.37;;;13.70;99.90;;;;;;5045072;28;20212;-78
2022/06/28 00:31:30;;;;;;;17.93;16.20;;;13.70;99.90;;;;;;5043502;28;20460;-78
2022/06/28 00:33:56;;;;;;;18.30;15.53;;;13.70;99.90;;;;;;5025446;28;20047;-77
2022/06/28 00:36:22;;;;;;;18.97;15.43;;;13.70;99.90;;;;;;5042114;28;20041;-78
2022/06/28 00:38:49;;;;;;;18.37;16.03;;;13.60;99.90;;;;;;5050076;28;20048;-78
2022/06/28 00:41:15;;;;;;;18.40;16.37;;;13.60;99.90;;;;;;5026791;28;20094;-78
2022/06/28 00:43:41;;;;;;;18.80;16.10;;;13.60;99.90;;;;;;5013028;28;20037;-78
2022/06/28 00:46:07;;;;;;;23.13;16.93;;;13.60;99.90;;;;;;5041244;28;20128;-78
2022/06/28 00:48:34;;;;;;;21.33;16.70;;;13.60;99.90;;;;;;5011879;28;20517;-78
2022/06/28 00:51:01;;;;;;;19.20;17.20;;;13.60;99.90;;;;;;5035686;28;20095;-78
2022/06/28 00:53:26;;;;;;;20.20;17.40;;;13.50;99.90;;;;;;5036624;28;20041;-78
2022/06/28 00:55:54;;;;;;;22.77;18.67;;;13.50;99.90;;;;;;5031319;28;20049;-78
2022/06/28 00:58:19;;;;;;;21.97;16.70;;;13.50;99.90;;;;;;5033504;28;20056;-77
2022/06/28 01:00:48;;;;;;;19.30;17.17;;;13.50;99.90;;;;;;5043366;28;20072;-78
2022/06/28 01:03:17;;;;;;;24.23;18.60;;;13.50;99.90;;;;;;5019366;28;20461;-78
2022/06/28 01:05:45;;;;;;;24.10;18.10;;;13.50;99.90;;;;;;5035720;28;20045;-78
2022/06/28 01:08:12;;;;;;;22.87;17.40;;;13.50;99.90;;;;;;5031808;28;20045;-78
2022/06/28 01:10:38;;;;;;;20.33;17.63;;;13.50;99.90;;;;;;5032810;28;20048;-78
2022/06/28 01:13:08;;;;;;;21.50;17.43;;;13.40;99.90;;;;;;5042055;28;20037;-78
2022/06/28 01:15:36;;;;;;;20.17;17.03;;;13.50;99.90;;;;;;5019375;28;20050;-78
2022/06/28 01:18:05;;;;;;;24.57;18.13;;;13.40;99.90;;;;;;5020623;28;20113;-78
2022/06/28 01:20:44;;;;;;;20.90;18.23;;;13.40;99.90;;;;;;5019269;28;20044;-78
2022/06/28 01:23:24;;;;;;;23.27;18.13;;;13.40;99.90;;;;;;5027412;28;20605;-78
2022/06/28 01:26:10;;;;;;;27.07;19.50;;;13.40;99.90;;;;;;5025965;28;20079;-78
2022/06/28 01:28:42;;;;;;;20.43;17.93;;;13.40;99.90;;;;;;5040103;28;20036;-78
2022/06/28 01:31:17;;;;;;;22.03;18.40;;;13.40;99.90;;;;;;5026186;28;20521;-78
2022/06/28 01:33:45;;;;;;;19.30;17.03;;;13.40;99.90;;;;;;5019498;28;20525;-78
2022/06/28 01:36:14;;;;;;;25.23;19.87;;;13.30;99.90;;;;;;5012459;28;20190;-78
2022/06/28 01:38:43;;;;;;;25.60;19.33;;;13.30;99.90;;;;;;5028864;28;20127;-78
2022/06/28 01:41:32;;;;;;;24.10;21.20;;;13.30;99.90;;;;;;5042389;28;20140;-78
2022/06/28 01:44:05;;;;;;;21.13;18.53;;;13.30;99.90;;;;;;5036671;28;20033;-78
2022/06/28 01:46:34;;;;;;;23.33;17.67;;;13.30;99.90;;;;;;5041616;28;20415;-78
2022/06/28 01:49:05;;;;;;;22.50;17.97;;;13.30;99.90;;;;;;5020146;28;20044;-78
2022/06/28 01:51:32;;;;;;;22.03;17.80;;;13.30;99.90;;;;;;5015972;28;20045;-78
2022/06/28 01:53:59;;;;;;;21.20;17.27;;;13.30;99.90;;;;;;5036087;28;20449;-78
2022/06/28 01:56:32;;;;;;;26.03;20.63;;;13.30;99.90;;;;;;5033956;28;20041;-78
2022/06/28 01:59:04;;;;;;;25.87;18.73;;;13.30;99.90;;;;;;5044711;28;20045;-78
2022/06/28 02:01:50;;;;;;;19.70;15.57;;;13.20;99.90;;;;;;5042176;28;20461;-78
2022/06/28 02:04:20;;;;;;;13.70;12.27;;;13.20;99.90;;;;;;5034397;28;20554;-78
2022/06/28 02:06:49;;;;;;;21.23;17.30;;;13.10;99.90;;;;;;5032694;28;20040;-78
2022/06/28 02:09:17;;;;;;;25.30;15.67;;;13.10;99.90;;;;;;5041628;28;20064;-78
2022/06/28 02:11:46;;;;;;;21.43;17.13;;;13.10;99.90;;;;;;5044985;28;20098;-77
2022/06/28 02:14:14;;;;;;;20.17;18.03;;;13.10;99.90;;;;;;5045182;28;20033;-78
2022/06/28 02:16:41;;;;;;;21.73;17.10;;;13.00;99.90;;;;;;5026098;28;20051;-78
2022/06/28 02:19:07;;;;;;;21.33;17.53;;;13.00;99.90;;;;;;5025425;28;20131;-78
2022/06/28 02:21:35;;;;;;;21.07;16.03;;;13.00;99.90;;;;;;5028328;28;20571;-77
2022/06/28 02:24:00;;;;;;;21.53;15.67;;;13.00;99.90;;;;;;5053120;28;20033;-78
2022/06/28 02:26:28;;;;;;;20.20;16.43;;;12.90;99.90;;;;;;5022009;28;20504;-78
2022/06/28 02:28:53;;;;;;;21.97;17.80;;;12.90;99.90;;;;;;5064629;28;20045;-78
2022/06/28 02:31:21;;;;;;;21.50;17.27;;;12.80;99.90;;;;;;5042458;28;20467;-78
2022/06/28 02:33:47;;;;;;;24.83;17.57;;;12.80;99.90;;;;;;5045952;28;20028;-78
2022/06/28 02:41:44;;;;;;;21.23;17.05;;;12.70;99.90;;;;;;5032385;28;20168;-78
2022/06/28 02:44:10;;;;;;;22.63;16.87;;;12.70;99.90;;;;;;5047428;28;20094;-78
2022/06/28 02:46:36;;;;;;;26.87;16.40;;;12.60;99.90;;;;;;5040915;28;20049;-78
2022/06/28 02:49:02;;;;;;;20.97;15.83;;;12.70;99.90;;;;;;5053054;28;20129;-78
2022/06/28 02:51:27;;;;;;;18.30;15.77;;;12.60;99.90;;;;;;5031815;28;20132;-78
2022/06/28 02:53:54;;;;;;;20.80;16.43;;;12.60;99.90;;;;;;5057190;23;20101;-81
2022/06/28 02:56:22;;;;;;;17.60;14.87;;;12.60;99.90;;;;;;5046634;28;20079;-81
2022/06/28 02:58:49;;;;;;;19.20;16.17;;;12.60;99.90;;;;;;5058205;28;20032;-81
2022/06/28 03:01:15;;;;;;;21.70;16.03;;;12.60;99.90;;;;;;5052507;28;20561;-80
2022/06/28 03:03:41;;;;;;;18.63;16.00;;;12.60;99.90;;;;;;5027102;28;20139;-82
2022/06/28 03:06:08;;;;;;;19.23;15.03;;;12.60;99.90;;;;;;5038627;28;20048;-81
2022/06/28 03:08:34;;;;;;;19.20;16.77;;;12.50;99.90;;;;;;5036426;28;20041;-81
2022/06/28 03:11:01;;;;;;;24.13;17.73;;;12.50;99.90;;;;;;5030590;28;20552;-80
2022/06/28 03:13:27;;;;;;;23.57;17.33;;;12.50;99.90;;;;;;5022461;28;20036;-81
2022/06/28 03:15:54;;;;;;;26.77;19.23;;;12.50;99.90;;;;;;5027084;28;20036;-81
2022/06/28 03:18:20;;;;;;;26.10;17.40;;;12.50;99.90;;;;;;5042818;28;20494;-81
2022/06/28 03:20:46;;;;;;;22.00;17.63;;;12.40;99.90;;;;;;5035832;28;20033;-82
2022/06/28 03:23:14;;;;;;;25.10;16.13;;;12.40;99.90;;;;;;5018096;28;20094;-81
2022/06/28 03:25:42;;;;;;;19.90;16.83;;;12.40;99.90;;;;;;5018132;28;20098;-79
2022/06/28 03:28:08;;;;;;;25.30;18.77;;;12.40;99.90;;;;;;5014713;28;20403;-80
2022/06/28 03:30:33;;;;;;;18.57;16.63;;;12.40;99.90;;;;;;5030477;28;20079;-81
2022/06/28 03:33:01;;;;;;;24.00;17.50;;;12.40;99.90;;;;;;5038993;28;20036;-81
2022/06/28 03:35:31;;;;;;;19.90;16.20;;;12.40;99.90;;;;;;5024193;28;20063;-80
2022/06/28 03:37:57;;;;;;;25.77;17.43;;;12.40;99.90;;;;;;5011960;28;20032;-81
2022/06/28 03:40:38;;;;;;;19.97;17.43;;;12.40;99.90;;;;;;5036169;28;20048;-81
2022/06/28 03:43:05;;;;;;;22.97;18.20;;;12.40;99.90;;;;;;5031787;28;20410;-81
2022/06/28 03:45:31;;;;;;;20.73;16.93;;;12.40;99.90;;;;;;5020990;28;20044;-81
2022/06/28 03:48:20;;;;;;;20.77;15.40;;;12.40;99.90;;;;;;5041623;28;20051;-81
2022/06/28 03:51:05;;;;;;;24.23;18.90;;;12.50;99.90;;;;;;5044735;28;20149;-81
2022/06/28 03:53:41;;;;;;;23.80;16.97;;;12.50;99.90;;;;;;5050761;28;20505;-81
2022/06/28 03:56:19;;;;;;;19.37;15.30;;;12.50;99.90;;;;;;5051519;28;20040;-82
2022/06/28 03:58:45;;;;;;;22.97;16.60;;;12.50;99.90;;;;;;5026388;28;20048;-80
2022/06/28 04:01:11;;;;;;;19.07;13.07;;;12.50;99.90;;;;;;5039412;28;20418;-80
2022/06/28 04:03:38;;;;;;;17.57;14.53;;;12.50;99.90;;;;;;5037590;28;20045;-80
2022/06/28 04:06:04;;;;;;;21.43;15.87;;;12.50;99.90;;;;;;5043571;28;20059;-81
2022/06/28 04:08:30;;;;;;;24.57;17.90;;;12.50;99.90;;;;;;5034742;28;20079;-80
2022/06/28 04:11:15;;;;;;;16.40;13.40;;;12.50;99.90;;;;;;5039659;28;20616;-81
2022/06/28 04:13:43;;;;;;;24.67;18.67;;;12.50;99.90;;;;;;5038938;28;20036;-82
2022/06/28 04:16:10;;;;;;;26.43;18.13;;;12.50;99.90;;;;;;5037482;28;20066;-82
2022/06/28 04:18:38;;;;;;;23.60;17.93;;;12.50;99.90;;;;;;5038398;28;20131;-80
2022/06/28 04:21:19;;;;;;;26.03;18.37;;;12.50;99.90;;;;;;5047631;28;20040;-81
2022/06/28 04:23:49;;;;;;;30.00;18.60;;;12.50;99.90;;;;;;5036914;28;20444;-80
2022/06/28 04:26:15;;;;;;;25.37;19.07;;;12.60;99.90;;;;;;5018296;28;20090;-81
2022/06/28 04:28:42;;;;;;;25.43;18.40;;;12.60;99.90;;;;;;5037127;28;20475;-81
2022/06/28 04:31:15;;;;;;;27.37;19.90;;;12.70;99.90;;;;;;5026836;28;20547;-81
2022/06/28 04:33:42;;;;;;;25.20;18.73;;;12.70;99.90;;;;;;5041392;28;20528;-81
2022/06/28 04:36:10;;;;;;;22.30;18.50;;;12.70;99.90;;;;;;5024441;28;20052;-81
2022/06/28 04:38:38;;;;;;;25.10;19.07;;;12.70;99.90;;;;;;5030856;28;20448;-81
2022/06/28 04:41:08;;;;;;;23.80;18.70;;;12.70;99.90;;;;;;5054513;28;20071;-81
2022/06/28 04:43:47;;;;;;;24.27;18.83;;;12.80;99.90;;;;;;5037929;28;20093;-82
2022/06/28 04:46:18;;;;;;;26.90;19.60;;;12.80;99.90;;;;;;5035272;28;20483;-81
2022/06/28 04:48:48;;;;;;;28.80;19.87;;;12.80;99.90;;;;;;5033731;28;20051;-81
2022/06/28 04:51:14;;;;;;;30.17;19.10;;;12.80;99.90;;;;;;5026666;28;20048;-80
2022/06/28 04:53:44;;;;;;;24.33;19.53;;;12.90;99.90;;;;;;5018890;28;20051;-82
2022/06/28 04:56:11;;;;;;;30.93;20.47;;;12.90;99.90;;;;;;5016894;28;20158;-81
2022/06/28 04:58:41;;;;;;;25.23;18.33;;;12.90;99.90;;;;;;5009133;28;20033;-82
2022/06/28 05:01:07;;;;;;;28.77;20.27;;;13.00;99.90;;;;;;5017629;28;20049;-82
2022/06/28 05:03:33;;;;;;;26.83;19.27;;;13.00;99.90;;;;;;5020122;28;20577;-81
2022/06/28 05:06:03;;;;;;;28.80;18.63;;;13.00;99.90;;;;;;5059907;28;20044;-79
2022/06/28 05:08:31;;;;;;;25.87;18.50;;;13.10;99.90;;;;;;5034304;28;20044;-80
2022/06/28 05:11:01;;;;;;;26.13;18.77;;;13.20;99.90;;;;;;5019303;28;20040;-81
2022/06/28 05:13:46;;;;;;;23.57;18.53;;;13.30;99.90;;;;;;5057950;28;20040;-81
2022/06/28 05:16:15;;;;;;;27.73;19.20;;;13.30;99.90;;;;;;5028312;28;20490;-78
2022/06/28 05:18:41;;;;;;;22.47;18.00;;;13.30;99.90;;;;;;5040570;28;20078;-81
2022/06/28 05:21:11;;;;;;;26.63;18.73;;;13.40;99.90;;;;;;5020755;28;20095;-82
2022/06/28 05:23:39;;;;;;;26.03;17.97;;;13.40;99.90;;;;;;5037540;28;20071;-81
2022/06/28 05:26:31;;;;;;;23.47;18.87;;;13.40;99.90;;;;;;5038661;28;20093;-81
2022/06/28 05:29:32;;;;;;;26.83;19.00;;;13.50;99.90;;;;;;5048927;28;20051;-81
2022/06/28 05:31:58;;;;;;;23.80;18.03;;;13.60;99.90;;;;;;5040176;28;20032;-80
2022/06/28 05:34:25;;;;;;;24.03;16.93;;;13.70;99.90;;;;;;5044336;28;20056;-82
2022/06/28 05:36:52;;;;;;;20.70;15.43;;;14.10;99.90;;;;;;5044426;28;20047;-81
2022/06/28 05:39:18;;;;;;;28.77;16.07;;;14.30;99.90;;;;;;5036479;28;20404;-80
2022/06/28 05:41:44;;;;;;;24.53;16.33;;;14.40;99.90;;;;;;5026916;28;20047;-80
2022/06/28 05:44:10;;;;;;;22.50;15.50;;;14.30;99.90;;;;;;5039576;28;20040;-81
2022/06/28 05:46:39;;;;;;;21.23;15.33;;;14.30;99.90;;;;;;5038098;28;20482;-81
2022/06/28 05:49:05;;;;;;;23.20;14.63;;;14.30;99.90;;;;;;5038926;28;20048;-81
2022/06/28 05:51:30;;;;;;;24.33;14.70;;;14.30;99.90;;;;;;5052271;28;20036;-81
2022/06/28 05:53:58;;;;;;;19.77;14.00;;;14.30;99.90;;;;;;5039912;28;20063;-80
2022/06/28 05:56:24;;;;;;;19.00;14.63;;;14.40;99.90;;;;;;5019854;28;20123;-80
2022/06/28 05:58:50;;;;;;;22.77;15.90;;;14.50;99.90;;;;;;5041807;28;20056;-82
2022/06/28 06:01:16;;;;;;;21.47;14.17;;;14.50;99.90;;;;;;5018881;28;20036;-81
2022/06/28 06:03:42;;;;;;;16.30;11.87;;;14.80;99.90;;;;;;5021285;28;20040;-81
2022/06/28 06:06:08;;;;;;;18.67;12.63;;;15.30;99.90;;;;;;5045324;28;20043;-79
2022/06/28 06:08:35;;;;;;;14.63;12.37;;;15.40;99.90;;;;;;5016146;28;20044;-82
2022/06/28 06:11:03;;;;;;;18.70;11.87;;;15.40;99.90;;;;;;5038258;28;20040;-81
2022/06/28 06:13:29;;;;;;;14.83;11.27;;;15.30;99.90;;;;;;5017401;28;20054;-80
2022/06/28 06:15:55;;;;;;;17.27;10.50;;;15.20;99.90;;;;;;5038745;28;20045;-80
2022/06/28 06:18:21;;;;;;;15.47;10.67;;;15.20;99.90;;;;;;5030344;28;20045;-79
2022/06/28 06:20:47;;;;;;;20.53;10.90;;;15.20;99.90;;;;;;5040021;28;20413;-80
2022/06/28 06:23:13;;;;;;;18.00;9.73;;;15.30;99.90;;;;;;5022386;28;20037;-79
2022/06/28 06:25:58;;;;;;;16.50;10.73;;;15.20;99.90;;;;;;5041809;28;20501;-80
2022/06/28 06:28:26;;;;;;;16.93;9.83;;;15.20;99.90;;;;;;5025052;28;20044;-79
2022/06/28 06:30:51;;;;;;;14.30;10.60;;;15.20;99.90;;;;;;5033394;28;20622;-80
2022/06/28 06:33:21;;;;;;;15.07;10.27;;;15.20;99.90;;;;;;5053953;28;20509;-80
2022/06/28 06:36:22;;;;;;;16.70;10.30;;;15.20;99.90;;;;;;5013369;28;20053;-80
2022/06/28 06:38:49;;;;;;;13.33;10.23;;;15.20;99.90;;;;;;5023126;28;20136;-79
2022/06/28 06:41:15;;;;;;;19.30;10.73;;;15.30;99.90;;;;;;5022753;28;20182;-79
2022/06/28 06:43:44;;;;;;;17.17;10.27;;;15.40;99.90;;;;;;5028303;28;20048;-79
2022/06/28 06:46:15;;;;;;;16.90;10.20;;;15.70;99.90;;;;;;5009597;28;20048;-80
2022/06/28 06:48:41;;;;;;;13.53;9.23;;;15.90;99.90;;;;;;5030592;28;20032;-81
2022/06/28 06:51:08;;;;;;;19.67;10.43;;;15.80;99.90;;;;;;5033137;28;20052;-79
2022/06/28 06:53:34;;;;;;;15.97;9.87;;;15.80;99.90;;;;;;5055131;28;20070;-79
2022/06/28 06:56:00;;;;;;;16.83;9.80;;;15.80;99.90;;;;;;5035405;28;20048;-80
2022/06/28 06:58:27;;;;;;;13.87;8.97;;;15.90;99.90;;;;;;5021801;28;20440;-80
2022/06/28 07:00:55;;;;;;;16.40;9.17;;;15.80;99.90;;;;;;5027037;28;20395;-79
2022/06/28 07:03:21;;;;;;;19.40;10.27;;;15.90;99.90;;;;;;5024914;28;20533;-79
2022/06/28 07:05:47;;;;;;;16.67;10.93;;;15.90;99.90;;;;;;5020210;28;20072;-81
2022/06/28 07:08:13;;;;;;;16.33;8.30;;;16.00;99.90;;;;;;5032432;28;20091;-79
2022/06/28 07:10:49;;;;;;;14.40;8.53;;;16.10;99.90;;;;;;5033613;28;20029;-79
2022/06/28 07:13:15;;;;;;;14.00;6.90;;;16.20;99.90;;;;;;5034664;28;20055;-80
2022/06/28 07:15:41;;;;;;;13.00;6.87;;;16.40;99.90;;;;;;5027436;28;20036;-79
2022/06/28 07:18:08;;;;;;;16.27;7.47;;;16.40;99.90;;;;;;5044621;28;20128;-79
2022/06/28 07:20:34;;;;;;;14.80;7.10;;;16.40;99.90;;;;;;5022089;28;20425;-80
2022/06/28 07:23:00;;;;;;;13.77;7.17;;;16.40;99.90;;;;;;5039930;28;20132;-80
2022/06/28 07:25:26;;;;;;;15.03;7.20;;;16.50;99.90;;;;;;5016156;28;20068;-80
2022/06/28 07:27:52;;;;;;;17.13;6.93;;;16.50;99.90;;;;;;5019023;28;20414;-82
2022/06/28 07:30:18;;;;;;;15.13;7.00;;;16.60;99.90;;;;;;5051858;28;20040;-78
2022/06/28 07:32:43;;;;;;;17.93;7.20;;;16.70;99.90;;;;;;5038234;28;20131;-81
2022/06/28 07:35:11;;;;;;;10.17;6.10;;;16.70;99.90;;;;;;5046691;28;20142;-79
2022/06/28 07:37:37;;;;;;;14.27;6.37;;;16.60;99.90;;;;;;5041756;28;20045;-80
2022/06/28 07:40:06;;;;;;;16.63;7.47;;;16.60;99.90;;;;;;5028157;28;20119;-81
2022/06/28 07:42:50;;;;;;;15.43;6.67;;;16.80;99.90;;;;;;5058720;28;20090;-80
2022/06/28 07:45:36;;;;;;;17.43;6.30;;;16.90;99.90;;;;;;5047279;28;20327;-81
2022/06/28 07:48:09;;;;;;;13.93;6.67;;;17.00;99.90;;;;;;5038471;28;20052;-78
2022/06/28 07:53:22;;;;;;;13.50;5.93;;;17.20;99.90;;;;;;5058420;28;20078;-80
2022/06/28 07:56:12;;;;;;;17.43;6.40;;;17.20;99.90;;;;;;5053411;28;20059;-79
2022/06/28 07:58:39;;;;;;;16.37;6.37;;;17.20;99.90;;;;;;5043410;28;20831;-78
2022/06/28 08:01:09;;;;;;;15.07;5.83;;;17.30;99.90;;;;;;5041059;28;20047;-79
2022/06/28 08:03:35;;;;;;;15.80;5.10;;;17.30;99.90;;;;;;5037667;28;20045;-80
2022/06/28 08:06:02;;;;;;;14.80;5.33;;;17.50;99.90;;;;;;5025629;28;20041;-80
2022/06/28 08:08:34;;;;;;;11.25;5.82;;;17.60;99.90;;;;;;5026578;28;20068;-79
2022/06/28 08:11:00;;;;;;;17.63;6.07;;;17.80;99.90;;;;;;5040866;28;20036;-78
2022/06/28 08:13:27;;;;;;;12.60;4.50;;;17.90;99.90;;;;;;5042466;28;20478;-78
2022/06/28 08:15:53;;;;;;;9.10;4.07;;;18.20;99.90;;;;;;5049975;28;20063;-80
2022/06/28 08:18:19;;;;;;;12.87;4.60;;;18.30;99.90;;;;;;5043074;28;20071;-79
2022/06/28 08:20:45;;;;;;;8.37;4.20;;;18.20;99.90;;;;;;5029396;28;20059;-79
2022/06/28 08:23:13;;;;;;;8.47;3.60;;;18.20;99.90;;;;;;5036411;28;20048;-79
2022/06/28 08:25:42;;;;;;;10.00;4.30;;;18.30;99.90;;;;;;5039542;28;20527;-78
2022/06/28 08:28:09;;;;;;;10.33;4.57;;;18.30;99.90;;;;;;5035201;28;20106;-78
2022/06/28 08:30:35;;;;;;;11.67;4.20;;;18.30;99.90;;;;;;5035173;28;20550;-78
2022/06/28 08:33:01;;;;;;;9.77;4.27;;;18.30;99.90;;;;;;5024687;28;20108;-78
2022/06/28 08:35:27;;;;;;;9.67;3.80;;;18.40;99.90;;;;;;5035959;28;20040;-79
2022/06/28 08:37:53;;;;;;;14.07;4.33;;;18.40;99.90;;;;;;5056009;28;20041;-79
2022/06/28 08:40:22;;;;;;;10.33;3.70;;;18.50;99.90;;;;;;5018069;28;20067;-78
2022/06/28 08:42:53;;;;;;;10.80;3.37;;;18.50;99.90;;;;;;5025969;28;20418;-80
2022/06/28 08:45:20;;;;;;;9.33;3.17;;;18.50;99.90;;;;;;5027061;28;20052;-77
2022/06/28 08:47:49;;;;;;;7.33;3.03;;;18.50;99.90;;;;;;5057487;28;20135;-78
2022/06/28 08:50:22;;;;;;;13.10;2.90;;;18.50;99.90;;;;;;5054775;28;20036;-81
2022/06/28 08:53:16;;;;;;;8.00;2.90;;;18.60;99.90;;;;;;5050668;28;20123;-82
2022/06/28 08:55:44;;;;;;;7.93;2.53;;;18.80;99.90;;;;;;4980081;28;20042;-79
2022/06/28 08:58:09;;;;;;;7.33;3.00;;;18.80;99.90;;;;;;4975480;28;20060;-80
2022/06/28 09:00:36;;;;;;;7.07;2.57;;;18.90;99.90;;;;;;5019800;28;20038;-80
2022/06/28 09:03:02;;;;;;;12.00;2.90;;;19.00;99.90;;;;;;4984190;28;20503;-79
2022/06/28 09:05:29;;;;;;;10.87;2.50;;;19.00;99.90;;;;;;5002802;28;20068;-77
2022/06/28 09:07:55;;;;;;;8.03;2.80;;;18.90;99.90;;;;;;4998293;28;20042;-79
2022/06/28 09:10:21;;;;;;;12.77;2.60;;;19.00;99.90;;;;;;5032119;28;20091;-80
2022/06/28 09:12:57;;;;;;;7.20;2.00;;;19.00;99.90;;;;;;4993802;28;20045;-80
2022/06/28 09:15:24;;;;;;;9.23;3.00;;;19.10;99.90;;;;;;4970848;28;20046;-80
2022/06/28 09:17:54;;;;;;;7.30;2.00;;;19.30;99.90;;;;;;5015716;28;20042;-81
2022/06/28 09:20:19;;;;;;;8.63;1.90;;;19.60;99.90;;;;;;4961023;28;20181;-80
2022/06/28 09:22:46;;;;;;;6.20;1.90;;;19.70;99.90;;;;;;4963559;28;20057;-81
2022/06/28 09:25:23;;;;;;;7.27;2.23;;;19.60;99.90;;;;;;4982353;28;20045;-81
2022/06/28 09:27:55;;;;;;;9.47;1.77;;;19.60;99.90;;;;;;4990387;28;20049;-79
2022/06/28 09:30:22;;;;;;;7.17;1.67;;;19.80;99.90;;;;;;5012121;28;20050;-79
2022/06/28 09:32:48;;;;;;;12.00;1.67;;;20.10;99.90;;;;;;5005137;28;20037;-79
2022/06/28 09:35:14;;;;;;;7.67;1.97;;;20.20;99.90;;;;;;5007415;28;20192;-79
2022/06/28 09:37:51;;;;;;;8.67;2.00;;;20.20;99.90;;;;;;5010371;28;20088;-80
2022/06/28 09:40:18;;;;;;;3.97;1.60;;;20.30;99.90;;;;;;5019125;28;20052;-80
2022/06/28 09:42:45;;;;;;;8.93;2.13;;;20.40;99.90;;;;;;4998768;28;20046;-80
2022/06/28 09:45:16;;;;;;;10.03;2.03;;;20.40;99.90;;;;;;5013201;28;20088;-80
2022/06/28 09:47:44;;;;;;;7.30;1.53;;;20.50;99.90;;;;;;4971446;28;20466;-79
2022/06/28 09:50:11;;;;;;;7.07;1.70;;;20.90;99.90;;;;;;4992938;28;20037;-80
2022/06/28 09:52:43;;;;;;;9.37;2.00;;;21.30;99.90;;;;;;4974726;28;20050;-79
2022/06/28 09:55:09;;;;;;;5.80;1.60;;;21.20;99.90;;;;;;4978405;28;21300;-81
2022/06/28 09:57:36;;;;;;;5.22;1.50;;;21.40;99.90;;;;;;5001626;28;20468;-81
2022/06/28 10:00:03;;;;;;;5.73;1.80;;;21.70;99.90;;;;;;4966687;28;20037;-80
2022/06/28 10:02:40;;;;;;;6.38;1.60;;;21.80;99.90;;;;;;4997805;28;20053;-79
2022/06/28 10:05:06;;;;;;;3.63;1.40;;;22.00;99.90;;;;;;4996906;28;20048;-80
2022/06/28 10:07:34;;;;;;;6.63;1.60;;;22.20;99.90;;;;;;4971663;28;20401;-80
2022/06/28 10:10:01;;;;;;;5.03;1.80;;;22.20;99.90;;;;;;4963718;28;20073;-80
2022/06/28 10:15:17;;;;;;;6.30;1.50;;;22.20;99.90;;;;;;5005462;28;20046;-80
2022/06/28 10:17:52;;;;;;;6.45;1.65;;;22.40;99.90;;;;;;4963234;28;20050;-80
2022/06/28 10:20:22;;;;;;;4.93;1.48;;;22.80;99.90;;;;;;5017790;28;20065;-79
2022/06/28 10:22:48;;;;;;;8.38;2.15;;;23.00;99.90;;;;;;5017818;28;20105;-80
2022/06/28 10:25:15;;;;;;;6.90;1.35;;;23.00;98.00;;;;;;5021914;28;20128;-80
2022/06/28 10:27:44;;;;;;;6.38;1.42;;;22.80;97.60;;;;;;5007825;28;20068;-80
2022/06/28 10:30:18;;;;;;;7.13;1.45;;;22.80;98.30;;;;;;4981492;28;20088;-80
2022/06/28 10:32:46;;;;;;;8.82;1.70;;;22.90;97.40;;;;;;4986426;28;20042;-79
2022/06/28 10:36:00;;;;;;;7.55;1.55;;;23.20;98.20;;;;;;4996564;28;20041;-80
2022/06/28 10:38:26;;;;;;;11.00;2.40;;;23.40;97.70;;;;;;4984980;28;20045;-79
2022/06/28 10:40:52;;;;;;;5.90;1.42;;;23.40;96.30;;;;;;4982172;28;20495;-80
2022/06/28 10:43:46;;;;;;;5.72;1.50;;;23.50;95.30;;;;;;5013187;28;20418;-78
2022/06/28 10:46:12;;;;;;;4.13;1.02;;;23.40;93.90;;;;;;4978380;28;20057;-79
2022/06/28 10:49:03;;;;;;;6.25;1.50;;;23.40;95.90;;;;;;5023312;28;20399;-79
2022/06/28 10:51:29;;;;;;;8.10;1.38;;;23.10;94.90;;;;;;5009065;28;20150;-79
2022/06/28 10:54:06;;;;;;;4.38;1.35;;;22.90;96.60;;;;;;5006601;28;20501;-80
2022/06/28 10:56:37;;;;;;;7.22;1.40;;;23.00;95.90;;;;;;5034110;28;20076;-78
2022/06/28 10:59:05;;;;;;;6.95;1.55;;;23.20;96.10;;;;;;5005673;28;20038;-80
2022/06/28 11:01:56;;;;;;;5.75;1.70;;;23.00;96.70;;;;;;4989156;28;20069;-79
2022/06/28 11:04:25;;;;;;;7.78;1.52;;;23.00;97.90;;;;;;4989889;28;20129;-79
2022/06/28 11:06:53;;;;;;;6.25;1.50;;;23.40;97.80;;;;;;5010181;28;20135;-80
2022/06/28 11:09:28;;;;;;;6.18;1.45;;;23.40;97.20;;;;;;5035028;28;20046;-80
2022/06/28 11:12:08;;;;;;;3.58;1.27;;;23.40;95.90;;;;;;4989845;28;20065;-78
2022/06/28 11:14:44;;;;;;;4.93;1.58;;;23.80;96.10;;;;;;5009324;28;20038;-78
2022/06/28 11:17:15;;;;;;;4.32;1.20;;;24.10;95.60;;;;;;4995382;28;20513;-79
2022/06/28 11:19:50;;;;;;;4.72;0.93;;;24.50;94.50;;;;;;5021502;28;20045;-80
2022/06/28 11:22:19;;;;;;;5.32;1.30;;;24.50;92.50;;;;;;5008077;28;20384;-80
2022/06/28 11:24:46;;;;;;;6.65;1.17;;;24.30;92.30;;;;;;4984201;28;20396;-80
2022/06/28 11:27:21;;;;;;;5.32;1.08;;;24.40;92.80;;;;;;4999974;28;20416;-80
2022/06/28 11:29:52;;;;;;;3.17;1.00;;;24.60;91.60;;;;;;4979425;28;20037;-77
2022/06/28 11:32:20;;;;;;;4.78;0.98;;;24.60;90.70;;;;;;4970748;28;20096;-78
2022/06/28 11:34:55;;;;;;;4.20;1.20;;;24.70;92.20;;;;;;4991934;28;20038;-80
2022/06/28 11:37:22;;;;;;;7.70;1.50;;;25.00;91.80;;;;;;4963852;28;20061;-79
2022/06/28 11:39:51;;;;;;;5.13;1.40;;;24.70;89.50;;;;;;4999553;28;20037;-79
2022/06/28 11:42:17;;;;;;;6.03;1.50;;;23.80;90.90;;;;;;5006926;28;20041;-78
2022/06/28 11:44:43;;;;;;;5.85;1.30;;;23.20;91.50;;;;;;4978453;28;20484;-80
2022/06/28 11:47:10;;;;;;;7.50;1.50;;;22.70;92.40;;;;;;4964203;28;20052;-80
2022/06/28 11:49:36;;;;;;;5.07;1.52;;;22.60;93.00;;;;;;4993239;28;20511;-82
2022/06/28 11:52:03;;;;;;;5.15;1.33;;;22.60;94.10;;;;;;4977447;28;20204;-78
2022/06/28 11:54:29;;;;;;;5.75;1.65;;;22.60;95.80;;;;;;5046163;28;20046;-80
2022/06/28 11:56:55;;;;;;;3.72;1.25;;;22.40;95.60;;;;;;4980812;28;20046;-79
2022/06/28 11:59:59;;;;;;;5.40;1.30;;;22.60;94.80;;;;;;5004482;28;20042;-78
2022/06/28 12:02:49;;;;;;;6.32;1.67;;;23.20;94.70;;;;;;5012168;28;20423;-80
2022/06/28 12:05:30;;;;;;;4.28;1.48;;;23.60;93.50;;;;;;4999215;28;20415;-78
2022/06/28 12:07:58;;;;;;;6.22;1.40;;;24.10;90.90;;;;;;4994954;28;20042;-79
2022/06/28 12:10:28;;;;;;;7.28;1.58;;;24.10;91.30;;;;;;5016191;28;20509;-79
2022/06/28 12:12:54;;;;;;;5.95;1.30;;;24.30;91.10;;;;;;4968668;28;20042;-78
2022/06/28 12:15:28;;;;;;;5.93;1.38;;;24.60;91.70;;;;;;4986410;28;20041;-80
2022/06/28 12:17:58;;;;;;;10.38;1.60;;;24.80;91.20;;;;;;4983037;28;20056;-78
2022/06/28 12:20:24;;;;;;;5.95;1.50;;;24.90;92.50;;;;;;4975358;28;20042;-79
2022/06/28 12:23:00;;;;;;;5.65;1.63;;;24.80;90.10;;;;;;5000419;28;20042;-79
2022/06/28 12:25:26;;;;;;;6.72;1.60;;;24.80;90.50;;;;;;4999157;28;20038;-79
2022/06/28 12:27:51;;;;;;;5.72;1.58;;;24.80;90.80;;;;;;4996723;28;20060;-79
2022/06/28 12:30:17;;;;;;;7.30;1.85;;;24.50;89.80;;;;;;4979109;28;20091;-80
2022/06/28 12:32:43;;;;;;;7.43;1.52;;;24.10;88.50;;;;;;5014673;28;20100;-84
2022/06/28 12:35:09;;;;;;;5.32;1.13;;;23.80;90.70;;;;;;4988621;28;20386;-78
2022/06/28 12:37:36;;;;;;;5.45;1.48;;;24.00;91.60;;;;;;4992992;28;20692;-81
2022/06/28 12:40:05;;;;;;;6.07;1.33;;;24.10;91.40;;;;;;4976047;28;20046;-79
2022/06/28 12:42:32;;;;;;;4.93;1.60;;;23.90;91.00;;;;;;4973665;28;20108;-79
2022/06/28 12:45:01;;;;;;;7.25;1.50;;;23.60;91.40;;;;;;5001909;28;20103;-79
2022/06/28 12:47:27;;;;;;;5.95;1.30;;;23.40;92.00;;;;;;5019929;28;20077;-79
2022/06/28 12:49:53;;;;;;;7.35;1.42;;;23.30;91.60;;;;;;5008202;28;20065;-78
2022/06/28 12:52:19;;;;;;;7.20;1.40;;;23.00;92.00;;;;;;4977714;28;20416;-79
2022/06/28 12:54:45;;;;;;;6.43;1.70;;;22.80;92.20;;;;;;4978917;28;20480;-78
2022/06/28 12:57:12;;;;;;;6.68;1.30;;;22.90;92.80;;;;;;4995084;28;20049;-78
2022/06/28 12:59:38;;;;;;;6.93;1.38;;;23.40;92.30;;;;;;5010880;28;20128;-80